Time;durP1;ratioP1;P1;durP2;ratioP2;P2;SDS_P1;SDS_P2;PMS_P1;PMS_P2;Temp;Humidity;BMP_temperature;BMP_pressure;BME280_temperature;BME280_humidity;BME280_pressure;Samples;Min_cycle;Max_cycle;Signal;HPM_P1;HPM_P2
2024/02/20 00:02:56;;;;;;;3.20;1.20;;;;;;;5.78;85.34;99257.08;226814;1271;22591;-77
2024/02/20 00:08:05;;;;;;;4.10;1.80;;;;;;;5.74;85.46;99253.75;226799;1274;22574;-77
2024/02/20 00:13:08;;;;;;;3.70;1.90;;;;;;;5.68;85.41;99251.64;226790;1270;22558;-77
2024/02/20 00:18:10;;;;;;;2.70;1.20;;;;;;;5.66;85.87;99250.98;226742;1274;22539;-77
2024/02/20 00:23:14;;;;;;;2.40;1.40;;;;;;;5.63;86.13;99243.19;226721;1274;22556;-78
2024/02/20 00:28:16;;;;;;;2.00;1.40;;;;;;;5.61;86.22;99243.57;226775;1272;22550;-77
2024/02/20 00:33:18;;;;;;;3.60;1.90;;;;;;;5.62;85.93;99242.63;226720;1273;25333;-77
2024/02/20 00:38:20;;;;;;;3.80;1.90;;;;;;;5.64;85.88;99238.41;226646;1273;22554;-77
2024/02/20 00:43:26;;;;;;;2.00;1.50;;;;;;;5.66;86.52;99234.51;226743;1274;22546;-77
2024/02/20 00:48:29;;;;;;;3.50;1.40;;;;;;;5.67;86.27;99229.92;226472;1274;22539;-77
2024/02/20 00:53:32;;;;;;;3.50;1.60;;;;;;;5.67;86.10;99222.58;226754;1271;22637;-77
2024/02/20 00:58:34;;;;;;;3.00;1.70;;;;;;;5.63;86.48;99224.71;226749;1271;22583;-77
2024/02/20 01:03:37;;;;;;;2.60;1.60;;;;;;;5.57;86.37;99220.19;226789;1275;22550;-78
2024/02/20 01:08:39;;;;;;;3.60;1.90;;;;;;;5.54;86.64;99220.14;226634;1274;22646;-78
2024/02/20 01:13:42;;;;;;;3.40;1.50;;;;;;;5.51;86.57;99213.64;226788;1272;25449;-77
2024/02/20 01:18:43;;;;;;;3.20;1.50;;;;;;;5.49;86.69;99209.44;226839;1273;22535;-77
2024/02/20 01:23:45;;;;;;;2.40;1.40;;;;;;;5.49;86.87;99206.72;226835;1272;22556;-76
2024/02/20 01:28:47;;;;;;;3.60;1.70;;;;;;;5.46;86.82;99201.33;226876;1275;22539;-76
2024/02/20 01:33:49;;;;;;;3.50;1.70;;;;;;;5.44;86.78;99197.38;226737;1272;22706;-77
2024/02/20 01:38:51;;;;;;;4.40;1.90;;;;;;;5.42;86.93;99195.86;226798;1271;22695;-77
2024/02/20 01:43:53;;;;;;;3.90;2.30;;;;;;;5.41;87.01;99199.59;226723;1260;22548;-77
2024/02/20 01:48:56;;;;;;;4.50;2.60;;;;;;;5.40;87.35;99197.76;226744;1271;22561;-77
2024/02/20 01:53:59;;;;;;;4.10;2.90;;;;;;;5.40;87.20;99197.27;226717;1275;22548;-77
2024/02/20 01:59:01;;;;;;;5.80;2.80;;;;;;;5.40;87.22;99201.20;226745;1275;22546;-77
2024/02/20 02:04:04;;;;;;;3.30;2.90;;;;;;;5.42;87.31;99193.75;226810;1275;22552;-76
2024/02/20 02:09:06;;;;;;;4.60;2.80;;;;;;;5.43;87.07;99193.67;226814;1272;23070;-76
2024/02/20 02:14:09;;;;;;;2.90;2.30;;;;;;;5.46;87.22;99193.48;226463;1272;473071;-78
2024/02/20 02:19:12;;;;;;;3.00;2.20;;;;;;;5.50;87.46;99203.12;226749;1272;24212;-76
2024/02/20 02:24:14;;;;;;;3.50;2.10;;;;;;;5.52;87.15;99208.13;226698;1274;22693;-77
2024/02/20 02:29:17;;;;;;;4.40;2.80;;;;;;;5.53;87.31;99213.58;226680;1273;22545;-78
2024/02/20 02:34:19;;;;;;;4.80;3.20;;;;;;;5.57;87.29;99213.27;226713;1273;22538;-77
2024/02/20 02:39:23;;;;;;;4.70;2.50;;;;;;;5.56;87.24;99205.43;226736;1273;23442;-78
2024/02/20 02:44:25;;;;;;;4.70;2.90;;;;;;;5.53;87.48;99197.39;226852;1275;22551;-77
2024/02/20 02:49:28;;;;;;;4.70;3.50;;;;;;;5.45;87.31;99191.32;226714;1275;22555;-76
2024/02/20 02:54:30;;;;;;;6.70;4.20;;;;;;;5.40;87.79;99191.49;226831;1275;25341;-78
2024/02/20 02:59:32;;;;;;;5.30;4.70;;;;;;;5.37;87.73;99185.98;226798;1274;22555;-77
2024/02/20 03:04:34;;;;;;;7.70;5.30;;;;;;;5.32;87.93;99181.10;226899;1275;22960;-77
2024/02/20 03:09:37;;;;;;;7.40;5.70;;;;;;;5.21;87.84;99180.33;226808;1275;23270;-77
2024/02/20 03:14:39;;;;;;;12.00;6.80;;;;;;;5.14;88.20;99189.70;226803;1272;22543;-78
2024/02/20 03:19:41;;;;;;;9.30;7.10;;;;;;;5.13;88.26;99191.00;226688;1275;22530;-78
2024/02/20 03:24:45;;;;;;;9.50;7.70;;;;;;;5.15;88.28;99190.89;226808;1265;22550;-78
2024/02/20 03:29:47;;;;;;;12.00;10.00;;;;;;;5.18;88.31;99187.64;226862;1275;22559;-77
2024/02/20 03:34:49;;;;;;;13.40;11.60;;;;;;;5.19;88.61;99185.10;226821;1275;25462;-77
2024/02/20 03:39:51;;;;;;;15.20;11.40;;;;;;;5.21;88.82;99189.00;226692;1268;22559;-78
2024/02/20 03:44:53;;;;;;;14.80;10.90;;;;;;;5.23;88.51;99183.40;226722;1273;22554;-78
2024/02/20 03:49:55;;;;;;;13.40;10.90;;;;;;;5.22;88.37;99184.91;226799;1272;23175;-77
2024/02/20 03:54:58;;;;;;;13.70;10.50;;;;;;;5.21;88.56;99185.70;226761;1273;22551;-76
2024/02/20 04:00:00;;;;;;;14.60;10.60;;;;;;;5.22;88.97;99188.98;226787;1275;22572;-77
2024/02/20 04:05:07;;;;;;;14.70;11.10;;;;;;;5.22;88.49;99192.61;226772;1274;22550;-76
2024/02/20 04:10:11;;;;;;;12.60;9.40;;;;;;;5.24;88.72;99187.40;226635;1275;22550;-76
2024/02/20 04:15:14;;;;;;;10.70;8.60;;;;;;;5.24;88.73;99188.75;226669;1274;22597;-76
2024/02/20 04:20:16;;;;;;;10.80;9.00;;;;;;;5.23;88.72;99195.17;226869;1274;22543;-78
2024/02/20 04:25:18;;;;;;;11.00;8.70;;;;;;;5.21;88.92;99201.30;226560;1274;24263;-77
2024/02/20 04:30:20;;;;;;;9.70;8.10;;;;;;;5.20;88.78;99201.42;226741;1272;22598;-78
2024/02/20 04:35:22;;;;;;;10.00;8.50;;;;;;;5.22;89.00;99204.33;226854;1274;22565;-77
2024/02/20 04:40:26;;;;;;;9.70;7.60;;;;;;;5.24;89.10;99201.98;226776;1272;22545;-77
2024/02/20 04:45:28;;;;;;;7.90;7.10;;;;;;;5.27;89.11;99201.09;226958;1274;25951;-76
2024/02/20 04:50:30;;;;;;;8.00;6.90;;;;;;;5.29;88.85;99206.25;226850;1273;22566;-77
2024/02/20 04:55:32;;;;;;;7.70;6.90;;;;;;;5.33;89.04;99209.41;226919;1273;22547;-77
2024/02/20 05:00:36;;;;;;;7.40;6.70;;;;;;;5.36;88.99;99207.72;226921;1273;22588;-78
2024/02/20 05:05:38;;;;;;;8.10;6.80;;;;;;;5.37;88.78;99201.54;226899;1273;22552;-78
2024/02/20 05:10:40;;;;;;;7.60;6.90;;;;;;;5.35;89.02;99208.08;226788;1274;25923;-77
2024/02/20 05:15:42;;;;;;;8.60;6.30;;;;;;;5.36;89.15;99218.06;226896;1273;22615;-77
2024/02/20 05:20:44;;;;;;;6.50;5.80;;;;;;;5.39;88.86;99213.40;226724;1273;22559;-77
2024/02/20 05:25:46;;;;;;;5.90;5.30;;;;;;;5.43;88.97;99210.63;226812;1274;22568;-77
2024/02/20 05:30:48;;;;;;;6.80;5.50;;;;;;;5.43;88.67;99210.19;226929;1275;22654;-77
2024/02/20 05:35:50;;;;;;;5.40;4.80;;;;;;;5.42;88.54;99206.79;226776;1272;22577;-78
2024/02/20 05:40:54;;;;;;;5.80;4.70;;;;;;;5.41;88.56;99206.05;226889;1272;22654;-77
2024/02/20 05:45:56;;;;;;;6.80;5.10;;;;;;;5.40;88.80;99204.89;226741;1274;22547;-77
2024/02/20 05:50:59;;;;;;;7.20;5.30;;;;;;;5.40;88.49;99208.05;226779;1273;22539;-77
2024/02/20 05:56:00;;;;;;;7.70;6.30;;;;;;;5.43;88.78;99211.95;226742;1273;22573;-77
2024/02/20 06:01:03;;;;;;;7.80;5.90;;;;;;;5.45;88.69;99211.04;226874;1273;22543;-78
2024/02/20 06:06:06;;;;;;;6.30;5.70;;;;;;;5.51;88.68;99219.70;226785;1270;22558;-78
2024/02/20 06:11:16;;;;;;;5.60;5.00;;;;;;;5.56;88.52;99219.81;226903;1267;22547;-78
2024/02/20 06:16:18;;;;;;;6.50;5.90;;;;;;;5.59;88.58;99229.31;226940;1267;22534;-77
2024/02/20 06:21:21;;;;;;;9.10;6.30;;;;;;;5.61;88.28;99234.36;226705;1272;22554;-77
2024/02/20 06:26:24;;;;;;;8.60;6.80;;;;;;;5.60;88.48;99236.41;226751;1270;22551;-77
2024/02/20 06:31:26;;;;;;;17.70;7.40;;;;;;;5.59;88.34;99245.37;226763;1273;22559;-77
2024/02/20 06:36:28;;;;;;;12.60;7.80;;;;;;;5.60;88.69;99249.67;226769;1273;22564;-76
2024/02/20 06:41:30;;;;;;;17.70;8.20;;;;;;;5.62;89.13;99256.06;226929;1273;22556;-77
2024/02/20 06:46:32;;;;;;;12.30;8.60;;;;;;;5.65;88.96;99259.31;226945;1273;25375;-77
2024/02/20 06:51:35;;;;;;;27.50;10.40;;;;;;;5.67;88.96;99262.60;226503;1257;22605;-77
2024/02/20 06:56:37;;;;;;;17.60;10.10;;;;;;;5.72;89.26;99267.74;226436;1260;22593;-77
2024/02/20 07:01:40;;;;;;;14.40;8.90;;;;;;;5.75;88.84;99266.60;226340;1271;22572;-78
2024/02/20 07:06:42;;;;;;;13.80;9.60;;;;;;;5.76;89.25;99270.49;226576;1271;22551;-78
2024/02/20 07:11:46;;;;;;;11.10;8.60;;;;;;;5.77;89.11;99272.15;226481;1260;24690;-77
2024/02/20 07:16:49;;;;;;;12.40;9.60;;;;;;;5.77;89.05;99273.89;226108;1267;22610;-76
2024/02/20 07:21:51;;;;;;;13.50;9.90;;;;;;;5.81;89.22;99277.48;226174;1268;22654;-77
2024/02/20 07:26:53;;;;;;;13.90;10.00;;;;;;;5.83;89.20;99273.70;226205;1253;22679;-76
2024/02/20 07:31:55;;;;;;;15.50;11.40;;;;;;;5.85;89.05;99278.33;226182;1262;22551;-77
2024/02/20 07:36:57;;;;;;;18.60;11.90;;;;;;;5.87;89.54;99284.66;225967;1267;22557;-77
2024/02/20 07:41:59;;;;;;;18.50;12.80;;;;;;;5.89;89.19;99288.17;225945;1268;22606;-79
2024/02/20 07:47:01;;;;;;;20.30;12.00;;;;;;;5.91;89.48;99292.56;225925;1273;22694;-78
2024/02/20 07:52:04;;;;;;;16.30;11.80;;;;;;;5.97;89.28;99292.30;226151;1264;22567;-78
2024/02/20 07:57:06;;;;;;;19.70;12.00;;;;;;;6.02;89.54;99293.71;226170;1264;23038;-77
2024/02/20 08:02:09;;;;;;;17.50;12.90;;;;;;;6.08;89.66;99292.24;226193;1262;22544;-76
2024/02/20 08:07:11;;;;;;;20.10;15.10;;;;;;;6.16;89.60;99297.98;226571;1260;22592;-77
2024/02/20 08:12:13;;;;;;;18.50;15.20;;;;;;;6.22;89.31;99294.49;226665;1267;22565;-77
2024/02/20 08:17:16;;;;;;;20.50;16.10;;;;;;;6.21;89.50;99292.98;226473;1273;24229;-77
2024/02/20 08:22:18;;;;;;;21.20;15.70;;;;;;;6.22;89.25;99293.14;226677;1273;22553;-76
2024/02/20 08:27:21;;;;;;;22.00;14.70;;;;;;;6.27;89.46;99288.66;226729;1272;22567;-77
2024/02/20 08:32:23;;;;;;;16.60;13.60;;;;;;;6.30;89.40;99288.02;226711;1268;22927;-76
2024/02/20 08:37:25;;;;;;;19.60;14.70;;;;;;;6.35;89.38;99288.66;226712;1267;22567;-77
2024/02/20 08:42:28;;;;;;;17.80;14.00;;;;;;;6.38;89.44;99289.30;226694;1273;22539;-77
2024/02/20 08:47:30;;;;;;;18.60;14.30;;;;;;;6.44;89.50;99288.09;226578;1259;22659;-76
2024/02/20 08:52:33;;;;;;;18.60;14.40;;;;;;;6.57;89.78;99282.98;226514;1267;22655;-76
2024/02/20 08:57:35;;;;;;;17.80;14.60;;;;;;;6.76;89.09;99285.63;226539;1267;23312;-76
2024/02/20 09:02:40;;;;;;;19.00;15.10;;;;;;;6.87;89.15;99285.88;226556;1267;24243;-78
2024/02/20 09:07:42;;;;;;;21.20;15.00;;;;;;;6.95;88.97;99287.02;226508;1267;22540;-77
2024/02/20 09:12:44;;;;;;;18.80;14.40;;;;;;;6.97;88.84;99288.27;226640;1267;22556;-76
2024/02/20 09:17:47;;;;;;;22.00;14.80;;;;;;;7.00;88.84;99292.38;226374;1260;22573;-77
2024/02/20 09:22:49;;;;;;;23.80;13.60;;;;;;;7.12;88.99;99290.77;226557;1270;22560;-77
2024/02/20 09:27:51;;;;;;;23.20;13.00;;;;;;;7.26;88.90;99290.27;226287;1267;22551;-78
2024/02/20 09:32:53;;;;;;;22.20;12.70;;;;;;;7.40;88.63;99290.53;226590;1260;22673;-77
2024/02/20 09:37:56;;;;;;;20.70;11.70;;;;;;;7.55;88.25;99293.31;226287;1253;22553;-76
2024/02/20 09:43:01;;;;;;;18.10;11.70;;;;;;;7.67;88.33;99296.96;226075;1263;22560;-77
2024/02/20 09:48:06;;;;;;;14.20;10.30;;;;;;;7.76;88.33;99296.67;226160;1270;22565;-77
2024/02/20 09:53:09;;;;;;;13.40;10.10;;;;;;;7.84;87.76;99299.58;226214;1252;22586;-77
2024/02/20 09:58:11;;;;;;;12.30;9.70;;;;;;;7.90;87.78;99304.59;226315;1273;22554;-77
2024/02/20 10:03:14;;;;;;;14.30;9.70;;;;;;;7.98;87.65;99310.52;226478;1252;22573;-78
2024/02/20 10:08:16;;;;;;;14.70;9.50;;;;;;;8.06;87.57;99311.27;226507;1267;24248;-78
2024/02/20 10:13:19;;;;;;;15.50;9.70;;;;;;;8.20;87.71;99313.69;226507;1268;22552;-77
2024/02/20 10:18:22;;;;;;;14.80;10.00;;;;;;;8.37;87.43;99317.36;226486;1274;22567;-78
2024/02/20 10:23:24;;;;;;;20.70;10.50;;;;;;;8.54;87.09;99317.48;226665;1267;23149;-79
2024/02/20 10:28:26;;;;;;;14.50;9.10;;;;;;;8.80;87.44;99315.49;226604;1268;23062;-78
2024/02/20 10:33:28;;;;;;;13.00;8.20;;;;;;;8.98;86.63;99306.67;226570;1267;23212;-79
2024/02/20 10:38:35;;;;;;;12.30;8.40;;;;;;;9.09;86.36;99303.37;226520;1253;22606;-78
2024/02/20 10:43:48;;;;;;;14.40;8.10;;;;;;;9.16;85.99;99302.56;226597;1255;25252;-78
2024/02/20 10:48:56;;;;;;;11.30;7.90;;;;;;;9.21;85.58;99296.96;226478;1271;22563;-79
2024/02/20 10:53:59;;;;;;;11.00;7.70;;;;;;;9.22;85.26;99288.79;226488;1267;22546;-78
2024/02/20 10:59:04;;;;;;;9.50;7.40;;;;;;;9.16;85.15;99289.25;226706;1267;22594;-78
2024/02/20 11:04:08;;;;;;;8.90;6.90;;;;;;;9.07;84.68;99285.16;226517;1259;22547;-77
2024/02/20 11:09:17;;;;;;;8.20;7.30;;;;;;;8.97;84.74;99285.88;226660;1255;23192;-77
2024/02/20 11:14:26;;;;;;;7.50;6.70;;;;;;;8.98;85.16;99281.54;226537;1271;22539;-77
2024/02/20 11:19:28;;;;;;;8.30;6.50;;;;;;;9.01;85.11;99273.08;226565;1271;22593;-78
2024/02/20 11:24:32;;;;;;;9.20;7.30;;;;;;;9.05;84.71;99266.30;226528;1268;22570;-77
2024/02/20 11:29:35;;;;;;;7.80;6.90;;;;;;;9.04;84.61;99265.60;226680;1268;22567;-78
2024/02/20 11:34:41;;;;;;;9.00;7.90;;;;;;;8.98;84.62;99265.20;226626;1268;22578;-79
2024/02/20 11:39:46;;;;;;;9.30;8.00;;;;;;;8.90;84.77;99267.61;226623;1272;27048;-78
2024/02/20 11:44:50;;;;;;;9.40;7.70;;;;;;;8.98;84.99;99260.76;226457;1271;22550;-78
2024/02/20 11:50:02;;;;;;;10.60;8.10;;;;;;;9.10;84.64;99257.70;226503;1252;22553;-79
2024/02/20 11:55:11;;;;;;;11.30;8.20;;;;;;;9.23;84.64;99254.95;226435;1255;22572;-77
2024/02/20 12:00:14;;;;;;;8.10;6.50;;;;;;;9.25;84.45;99249.38;226443;1251;23968;-77
2024/02/20 12:05:27;;;;;;;9.90;7.10;;;;;;;9.23;84.23;99239.92;226469;1253;24955;-77
2024/02/20 12:10:35;;;;;;;8.40;6.40;;;;;;;9.22;84.07;99238.80;226359;1267;22542;-78
2024/02/20 12:15:37;;;;;;;8.20;6.30;;;;;;;9.18;84.04;99237.84;226524;1268;22550;-77
2024/02/20 12:20:39;;;;;;;8.80;6.80;;;;;;;9.21;84.18;99236.10;226438;1267;22878;-77
2024/02/20 12:25:41;;;;;;;8.00;6.40;;;;;;;9.25;84.01;99230.75;226452;1252;23077;-82
2024/02/20 12:30:49;;;;;;;7.20;6.20;;;;;;;9.26;83.82;99226.67;226372;1260;22587;-78
2024/02/20 12:35:51;;;;;;;7.00;6.00;;;;;;;9.33;83.86;99222.66;226459;1255;22562;-77
2024/02/20 12:40:53;;;;;;;6.40;5.20;;;;;;;9.45;84.03;99231.16;226493;1268;22596;-77
2024/02/20 12:45:56;;;;;;;6.00;5.40;;;;;;;9.53;83.64;99242.44;226431;1271;24394;-77
2024/02/20 12:50:59;;;;;;;4.50;3.30;;;;;;;9.38;83.11;99259.77;226320;1255;22579;-77
2024/02/20 12:56:02;;;;;;;3.90;2.70;;;;;;;8.91;82.57;99259.98;226595;1255;22556;-76
2024/02/20 13:01:04;;;;;;;2.20;2.00;;;;;;;8.38;83.19;99263.23;226462;1255;22557;-77
2024/02/20 13:06:06;;;;;;;3.10;2.50;;;;;;;8.00;83.96;99266.52;226487;1274;22924;-77
2024/02/20 13:11:09;;;;;;;2.70;2.50;;;;;;;7.78;84.10;99261.27;226541;1268;22534;-77
2024/02/20 13:16:11;;;;;;;3.30;2.00;;;;;;;7.65;84.88;99260.66;226527;1255;22558;-76
2024/02/20 13:21:14;;;;;;;1.60;1.50;;;;;;;7.53;85.01;99252.33;226249;1268;22599;-77
2024/02/20 13:26:17;;;;;;;2.30;1.70;;;;;;;7.44;84.83;99245.66;226432;1261;22573;-77
2024/02/20 13:31:19;;;;;;;3.20;2.20;;;;;;;7.40;85.15;99249.70;226103;1269;22546;-77
2024/02/20 13:36:21;;;;;;;2.40;2.20;;;;;;;7.46;85.44;99247.94;226077;1268;25301;-77
2024/02/20 13:41:27;;;;;;;3.00;2.10;;;;;;;7.59;85.44;99250.93;226393;1252;22573;-76
2024/02/20 13:46:29;;;;;;;2.70;1.90;;;;;;;7.72;85.42;99252.23;226480;1268;22545;-77
2024/02/20 13:51:31;;;;;;;3.60;2.60;;;;;;;7.73;85.16;99256.44;226488;1267;22964;-76
2024/02/20 13:56:33;;;;;;;5.00;3.70;;;;;;;7.71;84.97;99261.93;226572;1252;22590;-78
2024/02/20 14:01:35;;;;;;;4.30;3.50;;;;;;;7.69;85.21;99269.75;226532;1255;22543;-76
2024/02/20 14:06:38;;;;;;;4.10;3.20;;;;;;;7.66;85.14;99278.28;226417;1257;22555;-76
2024/02/20 14:11:40;;;;;;;4.40;3.10;;;;;;;7.59;85.24;99284.82;226414;1255;233675;-76
2024/02/20 14:16:43;;;;;;;5.70;3.40;;;;;;;7.39;85.59;99283.81;226376;1265;23011;-75
2024/02/20 14:21:55;;;;;;;4.60;2.80;;;;;;;7.22;86.44;99280.83;226538;1262;22556;-74
2024/02/20 14:26:58;;;;;;;3.60;2.60;;;;;;;7.11;86.44;99278.48;226587;1252;22541;-74
2024/02/20 14:32:00;;;;;;;2.70;2.30;;;;;;;7.05;86.81;99275.94;226384;1251;24772;-76
2024/02/20 14:37:06;;;;;;;5.10;3.00;;;;;;;7.01;86.44;99277.13;226527;1260;24226;-77
2024/02/20 14:42:09;;;;;;;4.10;3.30;;;;;;;6.99;86.97;99279.95;226530;1271;22540;-75
2024/02/20 14:47:28;;;;;;;3.50;2.80;;;;;;;6.99;86.90;99270.66;226433;1255;22546;-75
2024/02/20 14:52:47;;;;;;;2.70;2.40;;;;;;;6.99;87.55;99268.20;226581;1266;22583;-76
2024/02/20 14:58:07;;;;;;;7.40;4.70;;;;;;;7.01;87.37;99278.34;226477;1268;22567;-75
2024/02/20 15:03:26;;;;;;;4.60;3.40;;;;;;;7.05;87.18;99284.81;226155;1256;22501;-73
2024/02/20 15:08:46;;;;;;;3.30;2.90;;;;;;;7.09;87.66;99294.80;226431;1272;22612;-74
2024/02/20 15:14:06;;;;;;;2.90;2.60;;;;;;;7.11;87.30;99295.99;226387;1271;22550;-73
2024/02/20 15:19:08;;;;;;;3.00;2.70;;;;;;;7.11;87.08;99290.73;226512;1273;22555;-74
2024/02/20 15:24:10;;;;;;;2.90;2.50;;;;;;;7.10;86.86;99298.35;226518;1274;22614;-74
2024/02/20 15:29:12;;;;;;;3.30;2.70;;;;;;;7.10;86.95;99293.85;226679;1274;22540;-76
2024/02/20 15:34:17;;;;;;;2.90;2.50;;;;;;;7.06;87.19;99304.66;226776;1271;22908;-75
2024/02/20 15:39:19;;;;;;;3.20;2.60;;;;;;;7.03;87.54;99305.52;226908;1273;22550;-75
2024/02/20 15:44:21;;;;;;;3.30;3.00;;;;;;;7.04;87.39;99309.84;226852;1274;22557;-74
2024/02/20 15:49:24;;;;;;;6.70;4.50;;;;;;;7.03;87.65;99311.98;226861;1267;22544;-73
2024/02/20 15:54:27;;;;;;;7.70;5.60;;;;;;;7.00;87.28;99316.17;226802;1274;22551;-74
2024/02/20 15:59:29;;;;;;;10.40;6.10;;;;;;;6.94;87.68;99321.09;226880;1267;22549;-74
2024/02/20 16:04:31;;;;;;;6.40;4.80;;;;;;;6.92;87.64;99319.05;226847;1268;22574;-73
2024/02/20 16:09:34;;;;;;;7.20;5.40;;;;;;;6.89;88.07;99315.09;226880;1274;22954;-73
2024/02/20 16:14:51;;;;;;;7.30;5.60;;;;;;;6.85;87.80;99321.14;226883;1266;22546;-74
2024/02/20 16:19:53;;;;;;;8.70;6.50;;;;;;;6.78;87.82;99326.98;226802;1272;23698;-74
2024/02/20 16:24:55;;;;;;;9.00;7.10;;;;;;;6.65;87.54;99336.23;226594;1273;22533;-74
2024/02/20 16:29:59;;;;;;;12.10;9.30;;;;;;;6.53;88.27;99348.42;226789;1269;22551;-73
2024/02/20 16:35:01;;;;;;;10.60;8.60;;;;;;;6.46;88.46;99347.73;226703;1265;22530;-73
2024/02/20 16:40:04;;;;;;;11.60;8.30;;;;;;;6.45;88.08;99353.98;226809;1270;24222;-74
2024/02/20 16:45:06;;;;;;;12.40;8.90;;;;;;;6.44;88.34;99362.82;226874;1266;22554;-73
2024/02/20 16:50:08;;;;;;;12.80;10.20;;;;;;;6.45;88.48;99374.21;226779;1272;22558;-74
2024/02/20 16:55:29;;;;;;;12.20;9.60;;;;;;;6.46;88.76;99380.46;226770;1271;22027;-74
2024/02/20 17:00:50;;;;;;;7.00;5.80;;;;;;;6.46;88.52;99390.13;226704;1271;22547;-73
2024/02/20 17:06:09;;;;;;;7.10;4.80;;;;;;;6.44;88.25;99399.42;226712;1272;24258;-74
2024/02/20 17:11:29;;;;;;;9.20;4.90;;;;;;;6.39;88.03;99399.15;226669;1274;24414;-74
2024/02/20 17:16:50;;;;;;;8.00;5.00;;;;;;;6.34;87.64;99403.45;226830;1256;22551;-74
2024/02/20 17:22:10;;;;;;;6.40;4.00;;;;;;;6.30;87.71;99402.25;226750;1271;22539;-74
2024/02/20 17:27:29;;;;;;;6.60;4.60;;;;;;;6.27;87.09;99406.02;226555;1274;22562;-75
2024/02/20 17:32:31;;;;;;;6.40;4.70;;;;;;;6.24;87.36;99412.41;226736;1271;22602;-74
2024/02/20 17:37:33;;;;;;;5.40;4.50;;;;;;;6.22;87.06;99418.81;226690;1271;22557;-73
2024/02/20 17:42:36;;;;;;;4.40;3.30;;;;;;;6.18;86.67;99417.26;226690;1268;22649;-73
2024/02/20 17:47:38;;;;;;;6.90;3.80;;;;;;;6.15;86.85;99422.23;226712;1257;23181;-74
2024/02/20 17:52:40;;;;;;;5.10;3.80;;;;;;;6.12;86.36;99420.61;226672;1271;22555;-74
2024/02/20 17:57:43;;;;;;;4.90;3.70;;;;;;;6.09;86.28;99421.42;226742;1272;22582;-74
2024/02/20 18:02:45;;;;;;;4.40;3.20;;;;;;;6.08;86.63;99425.06;226766;1271;22544;-74
2024/02/20 18:07:47;;;;;;;3.30;3.00;;;;;;;6.07;86.35;99426.23;226757;1274;23431;-73
2024/02/20 18:12:51;;;;;;;4.90;3.30;;;;;;;6.06;86.51;99426.99;226814;1274;25519;-73
2024/02/20 18:17:53;;;;;;;3.70;2.70;;;;;;;6.06;86.32;99428.74;226854;1268;22914;-72
2024/02/20 18:22:55;;;;;;;4.10;3.30;;;;;;;6.06;86.70;99433.30;226856;1273;22537;-73
2024/02/20 18:27:58;;;;;;;7.00;3.70;;;;;;;6.05;86.60;99436.30;226658;1272;22555;-74
2024/02/20 18:32:59;;;;;;;4.70;3.60;;;;;;;6.04;86.65;99439.54;226819;1272;22534;-73
2024/02/20 18:38:02;;;;;;;5.90;4.10;;;;;;;6.00;86.35;99443.59;226859;1272;22559;-75
2024/02/20 18:43:06;;;;;;;5.70;4.00;;;;;;;5.96;86.01;99454.40;226835;1269;22542;-74
2024/02/20 18:48:08;;;;;;;3.80;3.20;;;;;;;5.94;85.85;99462.36;226783;1269;22559;-75
2024/02/20 18:53:13;;;;;;;4.10;3.60;;;;;;;5.92;86.18;99462.33;226782;1272;23050;-73
2024/02/20 18:58:15;;;;;;;6.50;4.90;;;;;;;5.85;86.44;99463.67;226723;1273;22534;-75
2024/02/20 19:03:17;;;;;;;6.40;5.10;;;;;;;5.69;86.99;99471.92;226828;1271;22574;-73
2024/02/20 19:08:20;;;;;;;5.30;4.50;;;;;;;5.54;87.21;99464.43;226855;1271;22531;-74
2024/02/20 19:13:22;;;;;;;5.30;4.40;;;;;;;5.43;87.86;99473.10;226767;1272;22550;-74
2024/02/20 19:18:24;;;;;;;6.30;3.90;;;;;;;5.36;87.68;99470.84;226763;1272;22548;-74
2024/02/20 19:23:26;;;;;;;4.70;3.00;;;;;;;5.30;87.61;99482.65;226809;1273;22649;-73
2024/02/20 19:28:28;;;;;;;6.90;2.80;;;;;;;5.24;87.70;99491.95;226884;1272;22571;-74
2024/02/20 19:33:30;;;;;;;7.50;3.20;;;;;;;5.12;87.29;99494.04;226809;1272;22556;-75
2024/02/20 19:38:33;;;;;;;7.30;2.90;;;;;;;5.00;87.66;99490.46;226865;1272;24292;-74
2024/02/20 19:43:36;;;;;;;10.10;4.10;;;;;;;4.90;87.70;99489.86;226871;1272;23309;-73
2024/02/20 19:48:38;;;;;;;6.20;3.00;;;;;;;4.84;87.70;99490.10;226795;1272;22543;-75
2024/02/20 19:53:40;;;;;;;8.70;3.50;;;;;;;4.79;88.04;99492.39;226764;1274;22551;-73
2024/02/20 19:58:43;;;;;;;7.40;2.90;;;;;;;4.76;87.90;99486.75;226999;1269;24181;-74
2024/02/20 20:03:45;;;;;;;8.80;2.60;;;;;;;4.74;88.17;99486.61;226830;1269;24251;-74
2024/02/20 20:08:47;;;;;;;10.00;2.90;;;;;;;4.72;87.84;99488.91;226765;1272;22544;-75
2024/02/20 20:13:49;;;;;;;11.20;3.40;;;;;;;4.72;88.02;99486.81;226664;1274;24235;-75
2024/02/20 20:18:51;;;;;;;9.30;3.50;;;;;;;4.71;88.06;99481.69;226665;1274;25002;-75
2024/02/20 20:23:54;;;;;;;8.60;3.40;;;;;;;4.70;88.27;99482.27;226738;1271;22558;-75
2024/02/20 20:29:12;;;;;;;11.90;3.70;;;;;;;4.70;88.32;99486.64;226743;1271;22547;-75
2024/02/20 20:34:14;;;;;;;10.90;3.60;;;;;;;4.69;88.34;99486.75;226718;1274;22561;-75
2024/02/20 20:39:18;;;;;;;10.40;4.00;;;;;;;4.67;88.42;99485.12;226769;1274;22569;-73
2024/02/20 20:44:21;;;;;;;11.00;4.80;;;;;;;4.66;88.34;99486.40;226780;1271;22544;-75
2024/02/20 20:49:23;;;;;;;8.70;4.50;;;;;;;4.66;88.44;99485.35;226728;1265;22538;-75
2024/02/20 20:54:26;;;;;;;12.00;5.40;;;;;;;4.66;88.60;99487.29;226820;1271;22527;-74
2024/02/20 20:59:27;;;;;;;14.60;6.70;;;;;;;4.68;88.40;99490.84;226770;1274;24366;-73
2024/02/20 21:04:30;;;;;;;11.90;6.30;;;;;;;4.70;88.52;99492.07;226781;1273;22563;-74
2024/02/20 21:09:33;;;;;;;14.80;6.00;;;;;;;4.73;88.68;99492.83;226812;1256;22564;-74
2024/02/20 21:14:35;;;;;;;13.10;6.70;;;;;;;4.73;88.85;99497.02;226786;1275;22840;-74
2024/02/20 21:19:37;;;;;;;13.20;6.00;;;;;;;4.73;88.56;99499.83;226908;1271;22557;-75
2024/02/20 21:24:39;;;;;;;13.10;5.60;;;;;;;4.73;88.42;99507.10;226898;1273;22573;-75
2024/02/20 21:29:41;;;;;;;15.40;5.60;;;;;;;4.73;88.55;99510.77;226729;1272;22542;-75
2024/02/20 21:34:43;;;;;;;13.10;5.00;;;;;;;4.75;88.57;99512.72;226786;1273;22551;-75
2024/02/20 21:39:45;;;;;;;9.90;4.50;;;;;;;4.76;88.60;99509.08;226714;1270;22551;-73
2024/02/20 21:44:47;;;;;;;9.50;4.10;;;;;;;4.79;88.37;99509.89;226834;1273;22551;-74
2024/02/20 21:49:49;;;;;;;12.50;4.30;;;;;;;4.80;88.68;99513.27;226851;1270;22546;-74
2024/02/20 21:54:51;;;;;;;12.90;4.40;;;;;;;4.80;88.43;99516.11;226725;1269;22588;-74
2024/02/20 21:59:54;;;;;;;14.10;5.00;;;;;;;4.79;88.45;99517.70;226747;1271;22544;-74
2024/02/20 22:04:56;;;;;;;10.80;4.70;;;;;;;4.78;88.54;99518.20;226871;1271;22545;-74
2024/02/20 22:09:59;;;;;;;13.80;4.90;;;;;;;4.76;88.47;99515.52;227023;1272;25415;-74
2024/02/20 22:15:04;;;;;;;13.30;5.00;;;;;;;4.75;88.54;99519.85;226940;1273;24891;-74
2024/02/20 22:20:08;;;;;;;14.20;5.10;;;;;;;4.71;88.93;99519.69;226904;1273;24391;-73
2024/02/20 22:25:10;;;;;;;17.50;6.20;;;;;;;4.67;88.80;99519.19;226824;1271;22540;-74
2024/02/20 22:30:12;;;;;;;13.70;6.20;;;;;;;4.66;88.73;99522.23;226892;1272;24235;-74
2024/02/20 22:35:14;;;;;;;18.20;7.50;;;;;;;4.65;88.79;99522.10;226902;1275;22567;-73
2024/02/20 22:40:16;;;;;;;18.10;6.60;;;;;;;4.64;88.46;99525.73;226852;1274;22548;-74
2024/02/20 22:45:23;;;;;;;14.10;5.80;;;;;;;4.63;88.50;99529.27;226878;1273;22564;-73
2024/02/20 22:50:25;;;;;;;19.60;7.10;;;;;;;4.63;88.77;99532.42;226755;1273;22543;-73
2024/02/20 22:55:27;;;;;;;16.80;6.90;;;;;;;4.67;89.04;99542.93;226882;1273;22539;-74
2024/02/20 23:00:29;;;;;;;15.30;6.60;;;;;;;4.73;89.04;99541.70;226888;1268;22602;-74
2024/02/20 23:05:31;;;;;;;16.10;6.50;;;;;;;4.77;89.17;99539.00;226905;1274;22547;-73
2024/02/20 23:10:33;;;;;;;14.70;6.40;;;;;;;4.81;89.21;99535.05;226858;1272;22543;-74
2024/02/20 23:15:35;;;;;;;14.50;6.80;;;;;;;4.83;89.02;99530.63;226817;1275;22546;-74
2024/02/20 23:20:37;;;;;;;14.10;6.90;;;;;;;4.85;89.01;99529.27;226740;1272;22577;-74
2024/02/20 23:25:39;;;;;;;15.80;6.90;;;;;;;4.84;88.66;99523.24;226828;1274;24269;-74
2024/02/20 23:30:43;;;;;;;14.10;6.20;;;;;;;4.82;88.89;99521.17;226870;1273;22547;-73
2024/02/20 23:35:45;;;;;;;16.00;7.20;;;;;;;4.79;88.99;99515.34;226810;1275;22577;-73
2024/02/20 23:40:47;;;;;;;19.30;7.00;;;;;;;4.76;88.68;99509.85;226811;1273;22563;-74